Reed, Oklahoma
Current Conditions -  °F | °C
As of 10:15 AM on Sunday 23 Nov 2014 (Local Time) from KAXS Reporting Station
Clear Clear  
Wind Chill: 55°   Ceiling: Unl
Heat Index: 55°   Visibility: 10mi
Dew Point: 46°   Wind: 12mph
Humidity: 74%   Direction: 260°W
Pressure: 29.46"   Gusts: NA
Location:  34.8485°N, 99.5641°W
Report Text: KAXS 231615Z AUTO 26010KT 10SM CLR 13/08 A2946 RMK AO2 T01260080
Loading
Personal Weather Stations






























Interactive Weather Map New forecast layout! Learn more

10-Day Weather Forecast

Advertisements
Track Severe Weather on mobile